createdAt,value
2022-10-01T00:00:13.082Z,97900.75
2022-10-01T00:03:17.248Z,97905.22
2022-10-01T00:06:22.267Z,97897.03
2022-10-01T00:09:27.135Z,97899.94
2022-10-01T00:12:30.250Z,97899.94
2022-10-01T00:15:33.605Z,97883.72
2022-10-01T00:18:38.231Z,97892.41
2022-10-01T00:21:41.769Z,97880.44
2022-10-01T00:24:47.245Z,97904.88
2022-10-01T00:27:50.589Z,97903.69
2022-10-01T00:30:54.269Z,97902.03
2022-10-01T00:33:59.295Z,97900.16
2022-10-01T00:37:02.776Z,97902.91
2022-10-01T00:40:08.706Z,97901.19
2022-10-01T00:43:22.252Z,97903.94
2022-10-01T00:46:29.677Z,97868.47
2022-10-01T00:49:36.308Z,97895.88
2022-10-01T00:52:42.670Z,97896.25
2022-10-01T00:55:52.053Z,97894.16
2022-10-01T00:58:56.114Z,97905.84
2022-10-01T01:02:00.471Z,97896.56
2022-10-01T01:05:04.562Z,97897.38
2022-10-01T01:08:09.727Z,97883.97
2022-10-01T01:11:24.151Z,97890.22
2022-10-01T01:14:35.013Z,97880.97
2022-10-01T01:17:48.307Z,97876.78
2022-10-01T01:21:09.294Z,97883.78
2022-10-01T01:24:50.071Z,97879.34
2022-10-01T01:28:08.341Z,97875.47
2022-10-01T01:31:16.208Z,97867.34
2022-10-01T01:34:27.593Z,97869.56
2022-10-01T01:37:35.177Z,97866.47
2022-10-01T01:40:41.788Z,97866.13
2022-10-01T01:43:49.581Z,97861.16
2022-10-01T01:46:56.434Z,97830.22
2022-10-01T01:50:03.146Z,97867.84
2022-10-01T01:53:06.827Z,97856.59
2022-10-01T01:56:10.690Z,97857.63
2022-10-01T01:59:18.586Z,97856.66
2022-10-01T02:02:26.168Z,97754.91
2022-10-01T02:05:38.672Z,97848.50
2022-10-01T02:08:50.516Z,97842.34
2022-10-01T02:12:07.551Z,97840.59
2022-10-01T02:15:22.772Z,97841.63
2022-10-01T02:18:35.597Z,97840.66
2022-10-01T02:21:42.055Z,97834.88
2022-10-01T02:24:49.204Z,97828.63
2022-10-01T02:27:59.142Z,97840.78
2022-10-01T02:31:05.553Z,97838.19
2022-10-01T02:34:12.691Z,97831.34
2022-10-01T02:37:19.009Z,97824.47
2022-10-01T02:40:26.682Z,97826.34
2022-10-01T02:43:38.359Z,97797.69
2022-10-01T02:46:53.220Z,97822.16
2022-10-01T02:49:56.429Z,97813.66
2022-10-01T02:53:05.671Z,97789.88
2022-10-01T02:56:11.827Z,97798.38
2022-10-01T02:59:15.844Z,97815.47
2022-10-01T03:02:23.685Z,97821.88
2022-10-01T03:05:27.392Z,97792.72
2022-10-01T03:08:31.606Z,97809.47
2022-10-01T03:11:35.864Z,97801.06
2022-10-01T03:14:40.889Z,97809.78
2022-10-01T03:17:51.960Z,97811.47
2022-10-01T03:20:55.993Z,97801.31
2022-10-01T03:24:00.751Z,97802.81
2022-10-01T03:27:05.214Z,97802.19
2022-10-01T03:30:10.918Z,97799.31
2022-10-01T03:35:04.486Z,97793.38
2022-10-01T03:38:08.253Z,97793.69
2022-10-01T03:41:11.891Z,97791.47
2022-10-01T03:44:31.949Z,97794.00
2022-10-01T03:47:35.556Z,97792.16
2022-10-01T03:50:40.933Z,97779.50
2022-10-01T03:53:44.491Z,97791.47
2022-10-01T03:56:49.286Z,97789.47
2022-10-01T03:59:57.330Z,97779.50
2022-10-01T04:03:02.149Z,97778.31
2022-10-01T04:06:07.731Z,97779.38
2022-10-01T04:09:12.022Z,97782.34
2022-10-01T04:12:16.423Z,97768.94
2022-10-01T04:15:22.279Z,97769.44
2022-10-01T04:18:26.827Z,97752.47
2022-10-01T04:21:32.601Z,97757.78
2022-10-01T04:24:37.156Z,97750.66
2022-10-01T04:27:41.077Z,97758.50
2022-10-01T04:30:46.428Z,97726.78
2022-10-01T04:33:49.784Z,97765.75
2022-10-01T04:36:55.425Z,97762.19
2022-10-01T04:39:59.466Z,97764.59
2022-10-01T04:43:05.052Z,97759.75
2022-10-01T04:46:09.121Z,97761.34
2022-10-01T04:49:12.638Z,97750.44
2022-10-01T04:52:17.688Z,97754.63
2022-10-01T04:55:22.762Z,97748.19
2022-10-01T04:58:27.722Z,97755.66
2022-10-01T05:01:32.585Z,97758.66
2022-10-01T05:04:36.362Z,97767.72
2022-10-01T05:07:41.362Z,97769.84
2022-10-01T05:10:44.567Z,97769.72
2022-10-01T05:13:47.845Z,97751.38
2022-10-01T05:16:51.400Z,97769.94
2022-10-01T05:19:55.653Z,97772.09
2022-10-01T05:23:14.488Z,97753.97
2022-10-01T05:26:22.225Z,97756.38
2022-10-01T05:29:28.536Z,97765.06
2022-10-01T05:32:32.721Z,97767.63
2022-10-01T05:35:36.045Z,97765.25
2022-10-01T05:38:42.280Z,97765.97
2022-10-01T05:41:45.463Z,97767.28
2022-10-01T05:44:50.016Z,97766.03
2022-10-01T05:48:01.009Z,97762.66
2022-10-01T05:51:15.805Z,97756.38
2022-10-01T05:54:23.325Z,97759.91
2022-10-01T05:57:27.396Z,97767.88
2022-10-01T06:00:31.785Z,97762.13
2022-10-01T06:03:36.067Z,97759.38
2022-10-01T06:06:39.139Z,97741.94
2022-10-01T06:09:45.378Z,97749.75
2022-10-01T06:12:49.535Z,97659.13
2022-10-01T06:15:53.734Z,97750.16
2022-10-01T06:18:58.199Z,97730.66
2022-10-01T06:22:01.282Z,97744.66
2022-10-01T06:25:06.853Z,97741.97
2022-10-01T06:28:14.482Z,97715.44
2022-10-01T06:31:20.187Z,97709.16
2022-10-01T06:34:23.652Z,97711.00
2022-10-01T06:37:27.280Z,97714.97
2022-10-01T06:40:32.833Z,97725.47
2022-10-01T06:43:36.294Z,97723.81
2022-10-01T06:46:39.444Z,97723.13
2022-10-01T06:49:46.805Z,97711.94
2022-10-01T06:52:51.833Z,97710.63
2022-10-01T06:55:56.970Z,97708.13
2022-10-01T06:59:00.399Z,97710.09
2022-10-01T07:02:03.775Z,97713.50
2022-10-01T07:05:08.635Z,97717.78
2022-10-01T07:08:13.052Z,97716.47
2022-10-01T07:11:19.266Z,97712.84
2022-10-01T07:14:22.878Z,97717.38
2022-10-01T07:17:26.107Z,97717.84
2022-10-01T07:20:30.373Z,97714.28
2022-10-01T07:23:33.600Z,97713.19
2022-10-01T07:26:38.113Z,97702.47
2022-10-01T07:29:42.536Z,97717.38
2022-10-01T07:32:45.879Z,97717.19
2022-10-01T07:35:49.328Z,97716.56
2022-10-01T07:38:52.633Z,97710.50
2022-10-01T07:41:57.238Z,97698.50
2022-10-01T07:45:00.586Z,97713.00
2022-10-01T07:48:04.504Z,97688.50
2022-10-01T07:51:08.189Z,97667.34
2022-10-01T07:54:14.441Z,97713.66
2022-10-01T07:57:19.207Z,97708.31
2022-10-01T08:00:24.081Z,97715.47
2022-10-01T08:03:27.408Z,97728.28
2022-10-01T08:06:30.659Z,97736.44
2022-10-01T08:09:34.082Z,97740.63
2022-10-01T08:12:38.596Z,97745.84
2022-10-01T08:15:42.147Z,97741.47
2022-10-01T08:18:45.264Z,97739.91
2022-10-01T08:21:48.467Z,97742.25
2022-10-01T08:24:51.633Z,97745.59
2022-10-01T08:27:56.235Z,97746.69
2022-10-01T08:30:59.633Z,97740.75
2022-10-01T08:34:02.824Z,97731.47
2022-10-01T08:37:06.468Z,97744.28
2022-10-01T08:40:11.086Z,97745.22
2022-10-01T08:43:29.740Z,97739.53
2022-10-01T08:46:36.861Z,97701.84
2022-10-01T08:50:01.456Z,97682.69
2022-10-01T08:53:13.977Z,97736.81
2022-10-01T08:56:22.848Z,97706.94
2022-10-01T08:59:41.775Z,97728.34
2022-10-01T09:02:47.092Z,97722.56
2022-10-01T09:06:04.918Z,97712.66
2022-10-01T09:09:36.234Z,97720.03
2022-10-01T09:12:49.381Z,97704.81
2022-10-01T09:16:00.929Z,97702.75
2022-10-01T09:19:17.335Z,97693.50
2022-10-01T09:22:29.307Z,97699.41
2022-10-01T09:25:35.989Z,97690.97
2022-10-01T09:28:41.981Z,97677.84
2022-10-01T09:35:21.273Z,97665.34
2022-10-01T09:38:32.168Z,97658.72
2022-10-01T09:41:35.546Z,97650.63
2022-10-01T09:44:39.039Z,97640.34
2022-10-01T09:47:44.994Z,97650.56
2022-10-01T09:50:56.370Z,97637.31
2022-10-01T09:54:04.361Z,97631.69
2022-10-01T09:57:10.469Z,97640.56
2022-10-01T10:00:19.262Z,97638.34
2022-10-01T10:03:24.610Z,97628.22
2022-10-01T10:06:31.749Z,97624.50
2022-10-01T10:09:37.154Z,97623.75
2022-10-01T10:12:43.344Z,97612.50
2022-10-01T10:15:52.379Z,97608.06
2022-10-01T10:18:58.148Z,97619.28
2022-10-01T10:22:13.516Z,97620.81
2022-10-01T10:25:23.964Z,97614.75
2022-10-01T10:28:28.359Z,97612.91
2022-10-01T10:31:40.858Z,97608.38
2022-10-01T10:34:47.342Z,97603.19
2022-10-01T10:37:54.627Z,97622.66
2022-10-01T10:40:58.511Z,97614.19
2022-10-01T10:44:05.825Z,97611.16
2022-10-01T10:47:13.677Z,97581.72
2022-10-01T10:50:29.870Z,97610.63
2022-10-01T10:53:44.899Z,97589.78
2022-10-01T10:56:56.558Z,97605.59
2022-10-01T11:00:01.467Z,97603.91
2022-10-01T11:03:07.057Z,97607.59
2022-10-01T11:06:14.758Z,97605.22
2022-10-01T11:09:19.834Z,97602.34
2022-10-01T11:12:38.422Z,97596.53
2022-10-01T11:15:56.371Z,97597.53
2022-10-01T11:19:17.526Z,97585.59
2022-10-01T11:22:39.119Z,97556.03
2022-10-01T11:25:56.805Z,97588.13
2022-10-01T11:29:13.294Z,97586.13
2022-10-01T11:32:24.771Z,97599.97
2022-10-01T11:35:55.370Z,97610.84
2022-10-01T11:39:02.720Z,97592.13
2022-10-01T11:42:12.109Z,97579.66
2022-10-01T11:45:21.336Z,97608.22
2022-10-01T11:48:29.773Z,97607.28
2022-10-01T11:51:40.223Z,97606.53
2022-10-01T11:54:57.719Z,97594.84
2022-10-01T11:58:26.228Z,97598.19
2022-10-01T12:01:38.987Z,97587.75
2022-10-01T12:04:47.559Z,97580.16
2022-10-01T12:07:58.034Z,97583.84
2022-10-01T12:11:11.696Z,97577.00
2022-10-01T12:14:20.616Z,97580.34
2022-10-01T12:17:29.517Z,97586.03
2022-10-01T12:20:37.524Z,97589.22
2022-10-01T12:23:49.547Z,97583.78
2022-10-01T12:27:04.990Z,97580.44
2022-10-01T12:30:15.162Z,97566.81
2022-10-01T12:33:38.328Z,97584.69
2022-10-01T12:36:50.797Z,97574.47
2022-10-01T12:40:06.475Z,97586.81
2022-10-01T12:43:32.012Z,97593.34
2022-10-01T12:46:43.937Z,97583.16
2022-10-01T12:49:52.365Z,97590.56
2022-10-01T12:53:12.540Z,97564.50
2022-10-01T12:56:23.329Z,97578.09
2022-10-01T12:59:44.440Z,97578.28
2022-10-01T13:03:21.217Z,97555.03
2022-10-01T13:06:39.893Z,97586.81
2022-10-01T13:09:49.606Z,97595.41
2022-10-01T13:13:01.894Z,97602.28
2022-10-01T13:16:11.742Z,97616.06
2022-10-01T13:19:20.173Z,97618.53
2022-10-01T13:22:32.859Z,97608.56
2022-10-01T13:25:44.605Z,97620.94
2022-10-01T13:29:09.832Z,97632.56
2022-10-01T13:32:28.643Z,97637.84
2022-10-01T13:35:36.545Z,97626.81
2022-10-01T13:38:43.875Z,97642.44
2022-10-01T13:41:48.029Z,97618.97
2022-10-01T13:44:57.676Z,97610.34
2022-10-01T13:48:09.180Z,97612.38
2022-10-01T13:51:15.551Z,97616.44
2022-10-01T13:54:27.703Z,97638.59
2022-10-01T13:57:36.327Z,97629.78
2022-10-01T14:00:49.691Z,97625.53
2022-10-01T14:04:01.423Z,97626.56
2022-10-01T14:07:15.844Z,97639.41
2022-10-01T14:10:20.176Z,97638.81
2022-10-01T14:13:41.535Z,97566.84
2022-10-01T14:16:48.619Z,97640.16
2022-10-01T14:19:52.332Z,97628.22
2022-10-01T14:23:10.031Z,97620.25
2022-10-01T14:26:22.115Z,97621.63
2022-10-01T14:29:45.987Z,97620.63
2022-10-01T14:33:14.048Z,97630.28
2022-10-01T14:36:19.798Z,97625.41
2022-10-01T14:39:26.115Z,97625.13
2022-10-01T14:42:29.280Z,97627.38
2022-10-01T14:45:32.450Z,97639.94
2022-10-01T14:48:37.796Z,97606.59
2022-10-01T14:51:51.423Z,97611.84
2022-10-01T14:55:02.981Z,97629.38
2022-10-01T14:58:06.316Z,97630.19
2022-10-01T15:01:18.470Z,97642.28
2022-10-01T15:04:22.861Z,97640.31
2022-10-01T15:07:29.178Z,97636.25
2022-10-01T15:10:33.951Z,97637.88
2022-10-01T15:13:41.874Z,97644.25
2022-10-01T15:16:45.653Z,97642.94
2022-10-01T15:19:52.808Z,97640.25
2022-10-01T15:23:01.601Z,97642.69
2022-10-01T15:26:09.783Z,97630.63
2022-10-01T15:29:14.899Z,97654.91
2022-10-01T15:35:14.451Z,97651.75
2022-10-01T15:38:17.813Z,97656.03
2022-10-01T15:41:31.953Z,97667.53
2022-10-01T15:44:42.639Z,97671.41
2022-10-01T15:47:51.643Z,97659.19
2022-10-01T15:51:01.153Z,97664.84
2022-10-01T15:54:09.964Z,97420.00
2022-10-01T15:57:18.642Z,97675.31
2022-10-01T16:00:25.946Z,97676.59
2022-10-01T16:03:33.129Z,97679.97
2022-10-01T16:06:42.985Z,97686.00
2022-10-01T16:10:13.534Z,97686.97
2022-10-01T16:13:39.851Z,97703.44
2022-10-01T16:16:43.378Z,97713.44
2022-10-01T16:19:47.916Z,97709.22
2022-10-01T16:22:52.639Z,97721.66
2022-10-01T16:25:55.801Z,97697.78
2022-10-01T16:29:04.660Z,97723.91
2022-10-01T16:32:23.385Z,97714.94
2022-10-01T16:35:30.080Z,97718.44
2022-10-01T16:38:34.851Z,97724.22
2022-10-01T16:41:37.995Z,97719.78
2022-10-01T16:44:41.492Z,97728.78
2022-10-01T16:47:44.990Z,97732.03
2022-10-01T16:50:48.330Z,97727.13
2022-10-01T16:53:54.484Z,97733.97
2022-10-01T16:56:59.193Z,97743.34
2022-10-01T17:00:02.575Z,97744.28
2022-10-01T17:03:08.997Z,97731.09
2022-10-01T17:06:12.129Z,97732.78
2022-10-01T17:09:16.718Z,97735.91
2022-10-01T17:12:20.223Z,97745.53
2022-10-01T17:15:26.956Z,97754.25
2022-10-01T17:18:30.130Z,97753.75
2022-10-01T17:21:33.369Z,97764.63
2022-10-01T17:24:37.987Z,97770.34
2022-10-01T17:27:41.076Z,97767.66
2022-10-01T17:30:46.487Z,97770.25
2022-10-01T17:33:51.056Z,97780.53
2022-10-01T17:36:54.229Z,97790.00
2022-10-01T17:39:58.649Z,97787.50
2022-10-01T17:43:01.827Z,97797.13
2022-10-01T17:46:05.196Z,97791.34
2022-10-01T17:49:08.873Z,97798.28
2022-10-01T17:52:12.002Z,97811.41
2022-10-01T17:55:17.182Z,97826.34
2022-10-01T17:58:20.429Z,97829.53
2022-10-01T18:01:23.653Z,97825.41
2022-10-01T18:04:26.788Z,97831.13
2022-10-01T18:07:29.944Z,97833.47
2022-10-01T18:10:34.434Z,97838.50
2022-10-01T18:13:38.991Z,97844.38
2022-10-01T18:16:42.168Z,97847.47
2022-10-01T18:19:53.437Z,97849.13
2022-10-01T18:22:57.092Z,97866.47
2022-10-01T18:26:01.594Z,97863.28
2022-10-01T18:29:04.803Z,97868.75
2022-10-01T18:32:16.398Z,97876.34
2022-10-01T18:35:26.464Z,97877.19
2022-10-01T18:38:32.172Z,97846.84
2022-10-01T18:41:38.607Z,97877.69
2022-10-01T18:44:41.866Z,97882.03
2022-10-01T18:47:56.740Z,97878.84
2022-10-01T18:51:07.355Z,97884.00
2022-10-01T18:54:26.258Z,97881.06
2022-10-01T18:57:47.373Z,97888.56
2022-10-01T19:01:08.385Z,97889.19
2022-10-01T19:04:33.923Z,97902.97
2022-10-01T19:07:52.470Z,97902.66
2022-10-01T19:10:59.440Z,97901.63
2022-10-01T19:14:17.919Z,97908.69
2022-10-01T19:17:33.910Z,97900.53
2022-10-01T19:20:54.932Z,97910.44
2022-10-01T19:24:16.740Z,97912.38
2022-10-01T19:27:31.548Z,97914.69
2022-10-01T19:30:46.529Z,97918.34
2022-10-01T19:33:57.288Z,97928.44
2022-10-01T19:37:06.046Z,97928.25
2022-10-01T19:40:20.551Z,97936.97
2022-10-01T19:43:29.637Z,97942.84
2022-10-01T19:46:36.889Z,97946.13
2022-10-01T19:49:41.689Z,97953.22
2022-10-01T19:52:46.051Z,97953.53
2022-10-01T19:55:51.624Z,97927.56
2022-10-01T19:58:57.045Z,97963.66
2022-10-01T20:02:10.621Z,97964.41
2022-10-01T20:05:18.241Z,97977.47
2022-10-01T20:08:34.113Z,97998.03
2022-10-01T20:11:46.247Z,98003.38
2022-10-01T20:15:12.519Z,98007.88
2022-10-01T20:18:28.570Z,97992.69
2022-10-01T20:21:55.871Z,98007.78
2022-10-01T20:25:09.265Z,98019.00
2022-10-01T20:28:26.010Z,98029.47
2022-10-01T20:31:33.078Z,98030.94
2022-10-01T20:34:49.228Z,98031.28
2022-10-01T20:38:00.100Z,98038.47
2022-10-01T20:41:07.044Z,97944.28
2022-10-01T20:44:15.123Z,98033.75
2022-10-01T20:47:24.681Z,98024.81
2022-10-01T20:50:34.058Z,98055.72
2022-10-01T20:53:41.900Z,98060.91
2022-10-01T20:57:02.882Z,98046.53
2022-10-01T21:00:09.092Z,98068.56
2022-10-01T21:03:22.250Z,98070.19
2022-10-01T21:06:33.385Z,98077.22
2022-10-01T21:09:40.963Z,98061.97
2022-10-01T21:12:52.683Z,98083.06
2022-10-01T21:16:02.572Z,98089.16
2022-10-01T21:19:17.327Z,98093.81
2022-10-01T21:22:34.812Z,98094.06
2022-10-01T21:25:50.878Z,98106.72
2022-10-01T21:29:09.070Z,98123.28
2022-10-01T21:35:15.920Z,98142.69
2022-10-01T21:38:32.289Z,98133.94
2022-10-01T21:41:53.738Z,98136.34
2022-10-01T21:45:20.335Z,98138.25
2022-10-01T21:48:40.087Z,98072.38
2022-10-01T21:52:00.061Z,98179.56
2022-10-01T21:55:20.855Z,98164.22
2022-10-01T21:58:38.276Z,98155.09
2022-10-01T22:02:01.664Z,98182.19
2022-10-01T22:05:12.489Z,98194.41
2022-10-01T22:08:28.413Z,98202.94
2022-10-01T22:11:39.176Z,98199.81
2022-10-01T22:14:46.591Z,98201.66
2022-10-01T22:17:52.192Z,98210.16
2022-10-01T22:20:59.079Z,98211.47
2022-10-01T22:24:08.530Z,98215.88
2022-10-01T22:27:16.362Z,98226.84
2022-10-01T22:30:20.713Z,98227.09
2022-10-01T22:33:31.807Z,98232.13
2022-10-01T22:36:43.214Z,98234.34
2022-10-01T22:39:52.399Z,98238.22
2022-10-01T22:43:02.062Z,98242.03
2022-10-01T22:46:22.521Z,98236.16
2022-10-01T22:49:40.681Z,98212.13
2022-10-01T22:52:54.930Z,98251.91
2022-10-01T22:55:59.759Z,98257.69
2022-10-01T22:59:13.328Z,98250.25
2022-10-01T23:02:21.644Z,98256.50
2022-10-01T23:05:40.686Z,98256.84
2022-10-01T23:08:49.378Z,98232.94
2022-10-01T23:12:01.921Z,98257.28
2022-10-01T23:15:20.323Z,98256.44
2022-10-01T23:18:40.081Z,98254.81
2022-10-01T23:21:52.946Z,98254.13
2022-10-01T23:25:10.206Z,98257.22
2022-10-01T23:28:26.662Z,98254.09
2022-10-01T23:31:37.590Z,98266.84
2022-10-01T23:34:48.292Z,98269.66
2022-10-01T23:38:18.136Z,98273.03
2022-10-01T23:41:28.488Z,98282.22
2022-10-01T23:44:40.305Z,98290.41
2022-10-01T23:47:47.981Z,98271.13
2022-10-01T23:51:00.475Z,98288.34
2022-10-01T23:54:10.797Z,98307.00
2022-10-01T23:57:19.781Z,98307.88
